Little Fort, Canada
Current Conditions -  °F | °C
As of 6:00 AM on Sunday 21 Dec 2014 (Local Time) from CYKA Reporting Station
Scattered Clouds Scattered Clouds  
Wind Chill: 34°   Ceiling: Unl
Heat Index: 34°   Visibility: 40mi
Dew Point: 32°   Wind: 3mph
Humidity: 93%   Direction: 360°N
Pressure: 29.56"   Gusts: NA
Location:  51.43°N, 120.2°W
Report Text: CYKA 211400Z 36003KT 40SM FEW009 FEW022 SCT170 01/M00 A2956 RMK SF1SC2AC1 SF TR SLP023
Loading
Personal Weather Stations






























Interactive Weather Map New forecast layout! Learn more

10-Day Weather Forecast

Advertisements
Track Severe Weather on mobile